Time;durP1;ratioP1;P1;durP2;ratioP2;P2;SDS_P1;SDS_P2;PMS_P1;PMS_P2;Temp;Humidity;BMP_temperature;BMP_pressure;BME280_temperature;BME280_humidity;BME280_pressure;Samples;Min_cycle;Max_cycle;Signal;HPM_P1;HPM_P2
2021/07/03 00:01:34;;;;;;;8.47;7.57;;;28.90;99.90;;;;;;4993914;28;20202;-86
2021/07/03 00:04:05;;;;;;;8.00;7.30;;;28.60;99.90;;;;;;4997667;28;20246;-86
2021/07/03 00:06:36;;;;;;;9.20;6.53;;;28.00;99.90;;;;;;5008068;28;20217;-86
2021/07/03 00:09:06;;;;;;;8.33;7.53;;;28.30;99.90;;;;;;5014045;28;20642;-85
2021/07/03 00:11:37;;;;;;;9.23;6.80;;;28.80;99.90;;;;;;5013222;28;20629;-86
2021/07/03 00:14:08;;;;;;;8.77;7.10;;;28.80;99.90;;;;;;5013978;28;20256;-86
2021/07/03 00:16:42;;;;;;;8.33;7.50;;;29.00;99.90;;;;;;5014137;28;20337;-86
2021/07/03 00:19:13;;;;;;;8.73;7.90;;;29.40;99.90;;;;;;5014123;28;20292;-86
2021/07/03 00:21:43;;;;;;;8.57;7.20;;;29.40;99.90;;;;;;5012884;28;20648;-86
2021/07/03 00:24:14;;;;;;;9.93;8.13;;;29.30;99.90;;;;;;5014273;28;20328;-86
2021/07/03 00:26:47;;;;;;;8.90;7.17;;;29.00;99.90;;;;;;5001098;28;20290;-89
2021/07/03 00:29:18;;;;;;;8.57;7.73;;;29.20;99.90;;;;;;4996150;28;20352;-85
2021/07/03 00:31:51;;;;;;;10.50;8.83;;;28.60;99.90;;;;;;4996448;28;20573;-90
2021/07/03 00:34:30;;;;;;;9.13;8.21;;;28.90;99.90;;;;;;4900109;28;10000644;-88
2021/07/03 00:37:02;;;;;;;9.20;7.77;;;28.90;99.90;;;;;;4997191;28;20422;-88
2021/07/03 00:42:30;;;;;;;11.73;7.43;;;28.30;99.90;;;;;;5000357;28;20246;-94
2021/07/03 00:45:01;;;;;;;8.07;6.87;;;27.90;99.90;;;;;;5000971;28;20300;-96
2021/07/03 00:48:07;;;;;;;8.20;7.00;;;28.10;99.90;;;;;;5001162;28;20234;-96
2021/07/03 00:50:45;;;;;;;8.53;7.10;;;28.20;99.90;;;;;;4997249;28;20273;-95
2021/07/03 00:53:19;;;;;;;9.53;7.20;;;28.60;99.90;;;;;;4992740;28;20236;-96
2021/07/03 00:55:54;;;;;;;10.43;8.37;;;29.20;99.90;;;;;;4999082;28;20307;-93
2021/07/03 00:58:26;;;;;;;8.10;7.30;;;28.90;99.90;;;;;;4994716;28;20225;-94
2021/07/03 01:00:57;;;;;;;7.80;6.93;;;29.20;99.90;;;;;;5000272;28;20229;-93
2021/07/03 01:03:28;;;;;;;8.63;7.83;;;29.50;99.90;;;;;;5000340;28;20207;-92
2021/07/03 01:06:05;;;;;;;8.13;7.30;;;29.60;99.90;;;;;;5000238;28;20668;-94
2021/07/03 01:11:29;;;;;;;8.83;7.50;;;29.60;99.90;;;;;;4997801;28;20207;-96
2021/07/03 01:14:03;;;;;;;7.77;7.07;;;30.10;99.90;;;;;;5015651;28;20236;-95
2021/07/03 01:16:35;;;;;;;7.50;6.87;;;30.50;99.90;;;;;;5003369;28;20240;-96
2021/07/03 01:19:11;;;;;;;7.83;7.13;;;30.90;99.90;;;;;;5004924;28;20198;-96
2021/07/03 01:21:51;;;;;;;7.80;7.10;;;30.30;99.90;;;;;;4995880;28;20260;-95
2021/07/03 01:27:16;;;;;;;7.20;6.50;;;29.90;99.90;;;;;;5002423;28;20222;-96
2021/07/03 01:32:46;;;;;;;8.20;6.60;;;29.70;99.90;;;;;;5002111;28;20237;-96
2021/07/03 01:35:34;;;;;;;7.70;6.90;;;29.50;99.90;;;;;;4998507;28;20840;-96
2021/07/03 01:38:09;;;;;;;7.70;6.90;;;29.80;99.90;;;;;;4998455;28;20214;-96
2021/07/03 01:40:40;;;;;;;7.57;6.73;;;29.50;99.90;;;;;;5003403;28;20301;-95
2021/07/03 01:43:13;;;;;;;7.30;6.60;;;29.70;99.90;;;;;;5001502;28;20248;-96
2021/07/03 01:45:52;;;;;;;7.53;6.83;;;29.50;99.90;;;;;;4990307;28;20521;-96
2021/07/03 01:48:28;;;;;;;7.27;6.60;;;29.80;99.90;;;;;;4998762;28;20198;-96
2021/07/03 01:51:04;;;;;;;7.97;7.17;;;29.60;99.90;;;;;;4994492;28;20210;-96
2021/07/03 01:53:41;;;;;;;7.20;6.57;;;29.40;99.90;;;;;;4997061;28;20313;-96
2021/07/03 01:56:13;;;;;;;7.60;6.83;;;29.30;99.90;;;;;;4987029;28;20225;-95
2021/07/03 01:58:45;;;;;;;8.13;6.27;;;29.40;99.90;;;;;;4992281;28;20206;-95
2021/07/03 02:01:16;;;;;;;6.83;6.23;;;29.80;99.90;;;;;;4996745;28;20230;-96
2021/07/03 02:03:50;;;;;;;7.60;6.90;;;29.90;99.90;;;;;;4998356;28;20206;-96
2021/07/03 02:06:35;;;;;;;7.77;7.07;;;29.70;99.90;;;;;;5000378;28;20214;-96
2021/07/03 02:09:11;;;;;;;8.03;6.23;;;29.30;99.90;;;;;;4999317;28;20547;-96
2021/07/03 02:11:42;;;;;;;7.33;6.63;;;29.00;99.90;;;;;;4998814;28;20313;-96
2021/07/03 02:19:56;;;;;;;7.17;6.43;;;28.70;99.90;;;;;;5001421;28;20624;-96
2021/07/03 02:22:38;;;;;;;7.03;6.43;;;29.00;99.90;;;;;;4999323;28;20210;-96
2021/07/03 02:25:14;;;;;;;8.00;6.60;;;29.40;99.90;;;;;;4995256;28;20246;-95
2021/07/03 02:27:45;;;;;;;8.20;6.27;;;29.50;99.90;;;;;;4982960;28;20219;-96
2021/07/03 02:30:18;;;;;;;8.17;6.30;;;29.30;99.90;;;;;;4996205;28;20293;-96
2021/07/03 02:32:53;;;;;;;7.00;6.30;;;28.60;99.90;;;;;;5003035;28;20237;-96
2021/07/03 02:35:25;;;;;;;6.87;6.23;;;28.70;99.90;;;;;;5002029;28;20214;-96
2021/07/03 02:40:51;;;;;;;6.77;6.20;;;28.20;99.90;;;;;;5002393;28;20214;-96
2021/07/03 02:43:23;;;;;;;7.13;6.23;;;27.70;99.90;;;;;;4982342;28;20242;-96
2021/07/03 02:45:58;;;;;;;6.57;5.97;;;27.20;99.90;;;;;;5005646;28;20273;-96
2021/07/03 02:48:29;;;;;;;7.17;6.47;;;26.80;99.90;;;;;;4986151;28;20230;-96
2021/07/03 02:51:01;;;;;;;7.40;6.60;;;26.30;99.90;;;;;;4997446;28;20246;-96
2021/07/03 02:53:32;;;;;;;8.37;6.53;;;25.70;99.90;;;;;;5000680;28;20257;-96
2021/07/03 02:56:06;;;;;;;8.00;6.43;;;25.70;99.90;;;;;;4998536;28;20624;-96
2021/07/03 02:58:38;;;;;;;8.83;6.37;;;25.50;99.90;;;;;;4999954;28;20216;-96
2021/07/03 03:01:09;;;;;;;7.20;6.17;;;25.40;99.90;;;;;;4998667;28;20237;-95
2021/07/03 03:03:52;;;;;;;7.83;6.30;;;25.20;99.90;;;;;;5013364;28;20226;-96
2021/07/03 03:06:25;;;;;;;8.33;6.27;;;25.20;99.90;;;;;;5017541;28;20249;-96
2021/07/03 03:09:12;;;;;;;7.83;6.90;;;25.20;99.90;;;;;;5014439;28;20198;-96
2021/07/03 03:11:49;;;;;;;8.07;6.37;;;25.20;99.90;;;;;;5009355;28;20222;-96
2021/07/03 03:14:21;;;;;;;7.37;6.47;;;25.00;99.90;;;;;;5012819;28;20242;-96
2021/07/03 03:16:58;;;;;;;8.33;6.80;;;24.90;99.90;;;;;;5010754;28;20221;-96
2021/07/03 03:19:33;;;;;;;7.40;6.50;;;24.80;99.90;;;;;;5011164;28;20198;-96
2021/07/03 03:22:08;;;;;;;7.53;6.83;;;24.80;99.90;;;;;;5012855;28;20213;-96
2021/07/03 03:24:40;;;;;;;7.40;6.67;;;24.50;99.90;;;;;;5011524;28;20210;-96
2021/07/03 03:27:46;;;;;;;7.93;6.87;;;24.50;99.90;;;;;;5015507;28;20241;-96
2021/07/03 03:30:18;;;;;;;7.20;6.50;;;24.40;99.90;;;;;;5017361;28;20237;-96
2021/07/03 03:36:12;;;;;;;6.90;6.20;;;24.10;99.90;;;;;;5013922;28;20210;-96
2021/07/03 03:38:43;;;;;;;8.53;6.37;;;24.10;99.90;;;;;;5012491;28;20210;-96
2021/07/03 03:41:20;;;;;;;10.67;7.20;;;24.10;99.90;;;;;;5015429;28;20253;-96
2021/07/03 03:43:57;;;;;;;7.77;6.97;;;24.00;99.90;;;;;;5018755;28;20241;-95
2021/07/03 03:46:32;;;;;;;7.90;7.10;;;23.90;99.90;;;;;;5018995;28;20234;-96
2021/07/03 03:49:15;;;;;;;7.63;6.93;;;23.90;99.90;;;;;;5013856;28;20245;-96
2021/07/03 03:51:54;;;;;;;8.07;7.27;;;23.80;99.90;;;;;;5009241;28;20253;-96
2021/07/03 03:54:26;;;;;;;9.13;7.90;;;23.70;99.90;;;;;;5010647;28;20237;-96
2021/07/03 03:59:49;;;;;;;9.10;7.97;;;23.50;99.90;;;;;;5016595;28;20241;-96
2021/07/03 04:02:22;;;;;;;10.17;8.00;;;23.40;99.90;;;;;;5017197;28;20233;-96
2021/07/03 04:04:55;;;;;;;9.00;7.90;;;23.30;99.90;;;;;;5015760;28;20237;-96
2021/07/03 04:07:29;;;;;;;13.63;7.40;;;23.20;99.90;;;;;;5012526;28;20215;-96
2021/07/03 04:10:01;;;;;;;17.03;9.50;;;23.10;99.90;;;;;;5018665;28;20203;-96
2021/07/03 04:12:36;;;;;;;12.80;9.23;;;23.00;99.90;;;;;;5018692;28;20274;-96
2021/07/03 04:15:14;;;;;;;8.43;7.07;;;22.80;99.90;;;;;;5018745;28;20206;-95
2021/07/03 04:17:46;;;;;;;11.20;8.53;;;22.60;99.90;;;;;;5017571;28;20209;-96
2021/07/03 04:20:19;;;;;;;12.40;7.43;;;22.40;99.90;;;;;;5016199;28;20218;-96
2021/07/03 04:22:50;;;;;;;8.97;7.67;;;22.30;99.90;;;;;;5015548;28;20195;-96
2021/07/03 04:25:27;;;;;;;7.63;6.93;;;22.20;99.90;;;;;;5014695;28;20194;-96
2021/07/03 04:28:00;;;;;;;8.87;7.23;;;22.10;99.90;;;;;;5016111;28;20266;-96
2021/07/03 04:30:34;;;;;;;9.37;7.70;;;22.00;99.90;;;;;;5013624;28;20225;-96
2021/07/03 04:33:11;;;;;;;9.20;7.33;;;22.00;99.90;;;;;;5013315;28;20225;-96
2021/07/03 04:35:46;;;;;;;8.30;7.50;;;21.90;99.90;;;;;;5010887;28;20305;-96
2021/07/03 04:38:19;;;;;;;8.07;7.30;;;21.90;99.90;;;;;;5011385;28;20711;-96
2021/07/03 04:40:51;;;;;;;8.70;7.10;;;21.80;99.90;;;;;;5014325;28;20202;-96
2021/07/03 04:43:25;;;;;;;7.57;6.87;;;21.80;99.90;;;;;;5015274;28;20210;-96
2021/07/03 04:45:59;;;;;;;7.60;6.50;;;21.80;99.90;;;;;;5015456;28;20238;-96
2021/07/03 04:48:35;;;;;;;9.13;7.40;;;21.80;99.90;;;;;;5014410;28;20233;-96
2021/07/03 04:53:53;;;;;;;8.37;6.63;;;21.60;99.90;;;;;;5007940;28;20206;-96
2021/07/03 04:56:25;;;;;;;8.50;7.10;;;21.50;99.90;;;;;;5007816;28;20225;-93
2021/07/03 04:58:57;;;;;;;7.87;7.17;;;21.50;99.90;;;;;;4996512;28;20245;-95
2021/07/03 05:01:31;;;;;;;7.20;6.50;;;21.40;99.90;;;;;;4993380;28;20214;-95
2021/07/03 05:04:02;;;;;;;9.30;7.07;;;21.40;99.90;;;;;;4988500;28;20205;-95
2021/07/03 05:06:35;;;;;;;11.07;7.33;;;21.30;99.90;;;;;;4990898;28;20451;-94
2021/07/03 05:09:06;;;;;;;10.47;8.37;;;21.30;99.90;;;;;;5015386;28;20214;-95
2021/07/03 05:11:37;;;;;;;7.93;7.00;;;21.20;99.90;;;;;;5010770;28;20274;-93
2021/07/03 05:14:08;;;;;;;8.20;7.00;;;21.20;99.90;;;;;;5014731;28;20195;-94
2021/07/03 05:16:42;;;;;;;7.93;7.17;;;21.10;99.90;;;;;;5006151;28;20221;-94
2021/07/03 05:19:14;;;;;;;7.47;6.77;;;20.90;99.90;;;;;;5016574;28;20214;-93
2021/07/03 05:21:46;;;;;;;10.67;7.17;;;20.80;99.90;;;;;;5015028;28;20243;-93
2021/07/03 05:24:17;;;;;;;8.50;7.60;;;20.80;99.90;;;;;;4999225;28;20640;-94
2021/07/03 05:26:49;;;;;;;10.87;7.33;;;20.70;99.90;;;;;;4995511;28;20317;-94
2021/07/03 05:29:23;;;;;;;8.20;7.17;;;20.70;99.90;;;;;;4998890;28;20206;-94
2021/07/03 05:31:57;;;;;;;8.27;7.47;;;20.70;99.90;;;;;;5004152;28;20238;-95
2021/07/03 05:34:28;;;;;;;10.63;8.07;;;20.60;99.90;;;;;;5019428;28;20194;-95
2021/07/03 05:36:59;;;;;;;7.60;6.87;;;20.60;99.90;;;;;;5017914;28;20252;-95
2021/07/03 05:39:30;;;;;;;8.10;7.30;;;20.60;99.90;;;;;;5002899;28;20210;-93
2021/07/03 05:42:01;;;;;;;8.03;7.00;;;20.50;99.90;;;;;;4996537;28;20261;-94
2021/07/03 05:44:33;;;;;;;8.27;7.40;;;20.50;99.90;;;;;;4995855;28;20284;-93
2021/07/03 05:47:06;;;;;;;8.47;6.80;;;20.50;99.90;;;;;;4996309;28;20265;-94
2021/07/03 05:49:37;;;;;;;8.73;7.20;;;20.40;99.90;;;;;;4996318;28;20296;-93
2021/07/03 05:52:09;;;;;;;8.23;7.43;;;20.40;99.90;;;;;;5004752;28;20273;-94
2021/07/03 05:54:41;;;;;;;8.37;7.57;;;20.40;99.90;;;;;;4991176;28;20222;-93
2021/07/03 05:57:12;;;;;;;7.73;6.93;;;20.40;99.90;;;;;;4994137;28;20237;-94
2021/07/03 05:59:43;;;;;;;9.37;7.60;;;20.30;99.90;;;;;;4999449;28;20214;-93
2021/07/03 06:02:19;;;;;;;9.17;7.20;;;20.30;99.90;;;;;;4998579;28;20206;-93
2021/07/03 06:04:49;;;;;;;8.37;7.13;;;20.30;99.90;;;;;;4996696;28;20214;-93
2021/07/03 06:07:21;;;;;;;8.83;7.63;;;20.20;99.90;;;;;;5008252;28;20242;-94
2021/07/03 06:09:51;;;;;;;10.63;7.93;;;20.20;99.90;;;;;;5015957;28;20197;-95
2021/07/03 06:12:22;;;;;;;8.67;7.43;;;20.10;99.90;;;;;;5008325;28;20213;-93
2021/07/03 06:14:53;;;;;;;9.50;6.70;;;20.20;99.90;;;;;;4981129;28;20583;-92
2021/07/03 06:17:27;;;;;;;10.13;6.80;;;20.10;99.90;;;;;;4977682;28;20241;-93
2021/07/03 06:19:59;;;;;;;7.77;7.03;;;20.00;99.90;;;;;;4974242;28;20207;-92
2021/07/03 06:22:29;;;;;;;8.97;7.53;;;20.00;99.90;;;;;;4976537;28;20241;-93
2021/07/03 06:25:00;;;;;;;9.00;7.63;;;19.90;99.90;;;;;;4977440;28;20624;-92
2021/07/03 06:27:31;;;;;;;9.60;7.73;;;19.90;99.90;;;;;;4995469;28;20230;-92
2021/07/03 06:30:02;;;;;;;7.90;6.87;;;19.80;99.90;;;;;;4997811;28;20210;-92
2021/07/03 06:32:36;;;;;;;8.30;7.33;;;19.80;99.90;;;;;;4998830;28;20206;-92
2021/07/03 06:35:08;;;;;;;8.50;7.17;;;19.80;99.90;;;;;;4992587;28;20207;-93
2021/07/03 06:37:39;;;;;;;9.67;7.53;;;19.70;99.90;;;;;;4979449;28;20227;-90
2021/07/03 06:40:14;;;;;;;8.23;7.23;;;19.70;99.90;;;;;;4978999;28;20213;-93
2021/07/03 06:42:45;;;;;;;8.57;7.77;;;19.60;99.90;;;;;;4980768;28;20219;-93
2021/07/03 06:45:16;;;;;;;9.40;7.30;;;19.60;99.90;;;;;;4980593;28;20207;-93
2021/07/03 06:47:51;;;;;;;9.33;7.53;;;19.50;99.90;;;;;;4979404;28;20322;-93
2021/07/03 06:50:23;;;;;;;9.97;7.67;;;19.50;99.90;;;;;;4978623;28;20290;-93
2021/07/03 06:52:53;;;;;;;9.07;8.17;;;19.40;99.90;;;;;;4979779;28;20204;-94
2021/07/03 06:55:25;;;;;;;8.63;7.77;;;19.40;99.90;;;;;;4979897;28;20260;-94
2021/07/03 06:57:56;;;;;;;9.23;7.17;;;19.40;99.90;;;;;;4990309;28;20293;-94
2021/07/03 07:00:27;;;;;;;9.13;7.30;;;19.30;99.90;;;;;;5016660;28;20292;-94
2021/07/03 07:03:01;;;;;;;8.70;7.33;;;19.30;99.90;;;;;;5017883;28;20218;-94
2021/07/03 07:05:34;;;;;;;7.87;7.17;;;19.30;99.90;;;;;;5012748;28;20235;-93
2021/07/03 07:08:06;;;;;;;8.43;7.27;;;19.30;99.90;;;;;;4999040;28;20313;-94
2021/07/03 07:10:37;;;;;;;8.40;6.97;;;19.20;99.90;;;;;;4997705;28;20301;-93
2021/07/03 07:13:09;;;;;;;9.97;7.13;;;19.20;99.90;;;;;;4998192;28;20650;-94
2021/07/03 07:15:41;;;;;;;7.93;6.80;;;19.10;99.90;;;;;;4997932;28;20301;-93
2021/07/03 07:18:14;;;;;;;8.80;6.80;;;19.10;99.90;;;;;;4998285;28;20298;-93
2021/07/03 07:20:51;;;;;;;8.13;6.93;;;19.10;99.90;;;;;;5002855;28;20214;-93
2021/07/03 07:23:24;;;;;;;8.90;7.47;;;19.00;99.90;;;;;;5005667;28;20285;-92
2021/07/03 07:25:55;;;;;;;8.23;7.33;;;19.00;99.90;;;;;;5022263;28;20241;-92
2021/07/03 07:28:26;;;;;;;7.97;7.23;;;18.90;99.90;;;;;;5009060;28;20242;-93
2021/07/03 07:30:58;;;;;;;7.90;7.10;;;18.90;99.90;;;;;;5000198;28;20210;-93
2021/07/03 07:33:34;;;;;;;8.33;7.13;;;18.90;99.90;;;;;;4999431;28;20282;-93
2021/07/03 07:36:05;;;;;;;7.93;7.13;;;18.80;99.90;;;;;;5001202;28;20203;-92
2021/07/03 07:38:36;;;;;;;10.10;8.13;;;18.70;99.90;;;;;;4999173;28;20293;-92
2021/07/03 07:41:08;;;;;;;10.27;7.67;;;18.70;99.90;;;;;;5016132;28;20229;-91
2021/07/03 07:43:39;;;;;;;8.43;7.53;;;18.70;99.90;;;;;;5020374;28;20947;-93
2021/07/03 07:46:11;;;;;;;11.47;7.37;;;18.70;99.90;;;;;;5020196;28;20229;-93
2021/07/03 07:48:51;;;;;;;8.57;7.47;;;18.70;99.90;;;;;;5019431;28;20233;-93
2021/07/03 07:51:24;;;;;;;8.97;7.47;;;18.70;99.90;;;;;;5020889;28;20229;-94
2021/07/03 07:53:55;;;;;;;11.00;7.70;;;18.60;99.90;;;;;;5022929;28;20209;-93
2021/07/03 07:56:26;;;;;;;8.40;7.50;;;18.60;99.90;;;;;;5019985;28;20746;-93
2021/07/03 07:58:57;;;;;;;8.30;7.17;;;18.50;99.90;;;;;;5017653;28;20205;-93
2021/07/03 08:01:28;;;;;;;9.47;7.57;;;18.50;99.90;;;;;;5016351;28;20573;-93
2021/07/03 08:04:01;;;;;;;8.77;7.27;;;18.40;99.90;;;;;;5016602;28;20213;-93
2021/07/03 08:06:32;;;;;;;9.77;7.30;;;18.50;99.90;;;;;;5004144;28;20304;-93
2021/07/03 08:09:04;;;;;;;7.73;6.90;;;18.50;99.90;;;;;;4996351;28;20258;-93
2021/07/03 08:11:36;;;;;;;11.33;7.93;;;18.50;99.90;;;;;;4995360;28;20232;-92
2021/07/03 08:14:10;;;;;;;9.73;7.73;;;18.50;99.90;;;;;;4996799;28;20210;-91
2021/07/03 08:16:41;;;;;;;7.73;6.67;;;18.40;99.90;;;;;;4997091;28;20608;-92
2021/07/03 08:19:14;;;;;;;7.63;6.63;;;18.40;99.90;;;;;;4998121;28;20209;-92
2021/07/03 08:21:45;;;;;;;8.57;7.10;;;18.40;99.90;;;;;;4995801;28;20747;-92
2021/07/03 08:24:17;;;;;;;9.47;6.83;;;18.30;99.90;;;;;;5000006;28;20293;-92
2021/07/03 08:26:48;;;;;;;10.07;6.83;;;18.30;99.90;;;;;;5016847;28;20206;-92
2021/07/03 08:29:19;;;;;;;9.50;6.47;;;18.20;99.90;;;;;;5016633;28;20237;-92
2021/07/03 08:31:50;;;;;;;8.30;6.80;;;18.30;99.90;;;;;;5005826;28;20238;-93
2021/07/03 08:34:23;;;;;;;7.27;6.00;;;18.20;99.90;;;;;;4998070;28;20202;-92
2021/07/03 08:36:54;;;;;;;11.77;6.23;;;18.10;99.90;;;;;;4994461;28;20203;-91
2021/07/03 08:39:27;;;;;;;6.43;5.83;;;18.00;99.90;;;;;;4983514;28;20211;-92
2021/07/03 08:41:58;;;;;;;7.37;5.93;;;18.00;99.90;;;;;;4981039;28;20238;-92
2021/07/03 08:44:29;;;;;;;9.67;6.07;;;17.90;99.90;;;;;;4979322;28;20226;-93
2021/07/03 08:47:01;;;;;;;8.40;5.97;;;18.00;99.90;;;;;;4977722;28;20258;-92
2021/07/03 08:49:34;;;;;;;8.57;5.80;;;17.90;99.90;;;;;;4960809;28;20411;-93
2021/07/03 08:52:06;;;;;;;8.07;5.53;;;17.90;99.90;;;;;;4974569;28;20286;-94
2021/07/03 08:54:37;;;;;;;7.73;5.67;;;17.80;99.90;;;;;;4977327;28;20237;-92
2021/07/03 08:57:25;;;;;;;7.50;5.57;;;17.80;99.90;;;;;;5012376;28;20260;-93
2021/07/03 08:59:59;;;;;;;8.77;5.20;;;17.80;99.90;;;;;;5015746;28;20251;-93
2021/07/03 09:02:35;;;;;;;8.37;5.27;;;17.70;99.90;;;;;;5015833;28;20204;-93
2021/07/03 09:05:23;;;;;;;7.37;5.43;;;17.70;99.90;;;;;;5015770;28;20212;-93
2021/07/03 09:08:00;;;;;;;5.63;4.93;;;17.70;99.90;;;;;;5015535;28;20210;-93
2021/07/03 09:10:32;;;;;;;7.37;5.10;;;17.70;99.90;;;;;;5014966;28;20236;-93
2021/07/03 09:13:05;;;;;;;7.40;5.50;;;17.60;99.90;;;;;;5015354;28;20237;-92
2021/07/03 09:15:38;;;;;;;6.57;4.87;;;17.60;99.90;;;;;;5007732;28;20216;-92
2021/07/03 09:18:10;;;;;;;7.47;5.17;;;17.60;99.90;;;;;;4995302;28;20248;-92
2021/07/03 09:20:45;;;;;;;9.40;5.30;;;17.50;99.90;;;;;;4975691;28;20623;-92
2021/07/03 09:23:18;;;;;;;9.53;5.23;;;17.50;99.90;;;;;;4976751;28;20644;-91
2021/07/03 09:25:52;;;;;;;7.33;5.43;;;17.40;99.90;;;;;;4976415;28;20679;-92
2021/07/03 09:28:25;;;;;;;7.40;5.47;;;17.40;99.90;;;;;;4976498;28;20230;-92
2021/07/03 09:30:57;;;;;;;9.53;5.87;;;17.30;99.90;;;;;;4975661;28;20238;-92
2021/07/03 09:33:30;;;;;;;7.23;5.60;;;17.30;99.90;;;;;;4979108;28;20246;-92
2021/07/03 09:36:05;;;;;;;6.53;5.13;;;17.30;99.90;;;;;;4976259;28;20289;-92
2021/07/03 09:38:38;;;;;;;6.90;5.53;;;17.20;99.90;;;;;;4976660;28;20245;-92
2021/07/03 09:41:11;;;;;;;8.33;5.57;;;17.20;99.90;;;;;;4975999;28;20235;-92
2021/07/03 09:43:58;;;;;;;7.50;5.07;;;17.20;99.90;;;;;;4976937;28;20219;-92
2021/07/03 09:46:30;;;;;;;9.03;4.93;;;17.30;99.90;;;;;;4975614;28;20245;-92
2021/07/03 09:49:05;;;;;;;8.67;5.23;;;17.20;99.90;;;;;;4976441;28;20584;-92
2021/07/03 09:51:42;;;;;;;8.90;5.23;;;17.10;99.90;;;;;;4975968;28;20273;-93
2021/07/03 09:54:16;;;;;;;8.47;5.67;;;17.00;99.90;;;;;;4976533;28;20257;-92
2021/07/03 09:56:48;;;;;;;7.23;5.23;;;17.00;99.90;;;;;;4981828;28;20249;-92
2021/07/03 09:59:30;;;;;;;7.57;5.57;;;17.00;99.90;;;;;;4995511;28;20218;-92
2021/07/03 10:02:01;;;;;;;8.60;5.17;;;16.90;99.90;;;;;;4994985;28;20297;-93
2021/07/03 10:04:33;;;;;;;8.13;5.50;;;16.90;99.90;;;;;;5000957;28;20210;-92
2021/07/03 10:07:10;;;;;;;6.93;5.47;;;16.90;99.90;;;;;;5001082;28;20252;-93
2021/07/03 10:09:48;;;;;;;7.57;5.50;;;16.90;99.90;;;;;;5003609;28;20257;-93
2021/07/03 10:12:23;;;;;;;9.50;5.33;;;16.90;99.90;;;;;;4999738;28;20237;-93
2021/07/03 10:14:55;;;;;;;9.90;5.93;;;16.90;99.90;;;;;;5001311;28;20342;-92
2021/07/03 10:17:28;;;;;;;7.20;5.70;;;16.80;99.90;;;;;;5001265;28;20225;-92
2021/07/03 10:19:59;;;;;;;9.17;5.93;;;16.80;99.90;;;;;;4999689;28;20305;-92
2021/07/03 10:22:35;;;;;;;9.37;5.60;;;16.70;99.90;;;;;;5002433;28;20210;-92
2021/07/03 10:25:16;;;;;;;7.10;5.30;;;16.70;99.90;;;;;;5002608;28;20236;-92
2021/07/03 10:27:54;;;;;;;8.07;5.20;;;16.70;99.90;;;;;;5004372;28;20233;-92
2021/07/03 10:30:27;;;;;;;8.47;5.00;;;16.70;99.90;;;;;;5003153;28;20788;-92
2021/07/03 10:33:05;;;;;;;8.43;5.67;;;16.60;99.90;;;;;;5010676;28;20209;-92
2021/07/03 10:35:45;;;;;;;10.23;5.77;;;16.60;99.90;;;;;;5025086;28;20232;-92
2021/07/03 10:38:24;;;;;;;9.13;6.10;;;16.60;99.90;;;;;;5039485;28;20205;-93
2021/07/03 10:40:56;;;;;;;8.53;5.43;;;16.50;99.90;;;;;;5039242;28;20190;-92
2021/07/03 10:43:29;;;;;;;8.60;5.80;;;16.50;99.90;;;;;;5020326;28;20251;-91
2021/07/03 10:46:00;;;;;;;8.33;5.23;;;16.50;99.90;;;;;;5018997;28;20218;-93
2021/07/03 10:48:32;;;;;;;9.97;5.60;;;16.50;99.90;;;;;;5011037;28;20282;-93
2021/07/03 10:51:12;;;;;;;8.13;6.07;;;16.50;99.90;;;;;;5001284;28;20226;-93
2021/07/03 10:53:45;;;;;;;10.23;6.30;;;16.40;99.90;;;;;;5001156;28;20672;-93
2021/07/03 10:56:17;;;;;;;10.17;5.20;;;16.40;99.90;;;;;;5018699;28;20221;-93
2021/07/03 10:58:51;;;;;;;9.53;6.07;;;16.40;99.90;;;;;;5019321;28;20197;-93
2021/07/03 11:01:22;;;;;;;10.00;5.80;;;16.30;99.90;;;;;;5011734;28;20234;-93
2021/07/03 11:03:53;;;;;;;8.53;5.90;;;16.40;99.90;;;;;;4998355;28;20206;-92
2021/07/03 11:06:24;;;;;;;8.00;6.10;;;16.30;99.90;;;;;;4998225;28;20241;-93
2021/07/03 11:08:58;;;;;;;10.90;5.97;;;16.40;99.90;;;;;;5000068;28;20210;-93
2021/07/03 11:11:29;;;;;;;10.13;5.63;;;16.30;99.90;;;;;;4998503;28;20702;-93
2021/07/03 11:14:00;;;;;;;10.23;6.00;;;16.30;99.90;;;;;;4997484;28;20206;-91
2021/07/03 11:16:31;;;;;;;10.30;5.57;;;16.30;99.90;;;;;;4997471;28;20330;-92
2021/07/03 11:19:03;;;;;;;10.83;6.33;;;16.40;99.90;;;;;;5010698;28;20205;-92
2021/07/03 11:21:34;;;;;;;11.60;6.67;;;16.30;99.90;;;;;;5027037;28;20240;-91
2021/07/03 11:24:08;;;;;;;10.63;6.23;;;16.30;99.90;;;;;;5017502;28;20209;-92
2021/07/03 11:26:39;;;;;;;10.23;6.47;;;16.30;99.90;;;;;;5016719;28;20212;-92
2021/07/03 11:29:10;;;;;;;7.17;5.70;;;16.30;99.90;;;;;;5016693;28;20205;-92
2021/07/03 11:31:41;;;;;;;9.43;6.93;;;16.30;99.90;;;;;;5015954;28;20277;-92
2021/07/03 11:34:18;;;;;;;8.67;6.03;;;16.30;99.90;;;;;;5016113;28;20209;-91
2021/07/03 11:36:58;;;;;;;11.57;6.10;;;16.30;99.90;;;;;;5000781;28;20298;-92
2021/07/03 11:39:31;;;;;;;7.90;6.03;;;16.20;99.90;;;;;;4997483;28;20281;-91
2021/07/03 11:42:04;;;;;;;9.33;5.87;;;16.30;99.90;;;;;;4995251;28;20214;-91
2021/07/03 11:44:36;;;;;;;11.90;6.00;;;16.30;99.90;;;;;;4997232;28;20353;-92
2021/07/03 11:47:07;;;;;;;8.73;5.97;;;16.30;99.90;;;;;;4997818;28;20214;-93
2021/07/03 11:49:43;;;;;;;8.90;6.20;;;16.30;99.90;;;;;;4997558;28;20273;-93
2021/07/03 11:52:14;;;;;;;9.30;5.80;;;16.30;99.90;;;;;;4995618;28;20241;-92
2021/07/03 11:54:47;;;;;;;11.17;6.20;;;16.40;99.90;;;;;;4996056;28;20671;-92
2021/07/03 11:57:20;;;;;;;10.73;6.37;;;16.40;99.90;;;;;;4996437;28;20305;-93
2021/07/03 11:59:54;;;;;;;8.23;6.10;;;16.40;99.90;;;;;;4995927;28;20282;-94
2021/07/03 12:02:25;;;;;;;8.90;6.00;;;16.40;99.90;;;;;;4997881;28;20238;-92
2021/07/03 12:04:57;;;;;;;8.77;5.63;;;16.40;99.90;;;;;;4995754;28;20218;-92
2021/07/03 12:07:28;;;;;;;11.37;5.93;;;16.40;99.90;;;;;;4996016;28;20288;-93
2021/07/03 12:10:10;;;;;;;7.97;5.70;;;16.30;99.90;;;;;;4995397;28;20234;-92
2021/07/03 12:12:41;;;;;;;8.57;6.03;;;16.30;99.90;;;;;;4347899;28;18766509;-92
2021/07/03 12:15:13;;;;;;;9.47;6.00;;;16.20;99.90;;;;;;4977709;28;20219;-92
2021/07/03 12:17:52;;;;;;;11.40;6.00;;;16.30;99.90;;;;;;4977311;28;20342;-92
2021/07/03 12:20:24;;;;;;;8.53;6.37;;;16.20;99.90;;;;;;4976400;28;20297;-92
2021/07/03 12:23:00;;;;;;;10.00;6.07;;;16.20;99.90;;;;;;4977289;28;20298;-91
2021/07/03 12:25:35;;;;;;;6.87;5.87;;;16.10;99.90;;;;;;4993020;28;20225;-91
2021/07/03 12:28:06;;;;;;;8.53;6.20;;;16.10;99.90;;;;;;5015729;28;20245;-92
2021/07/03 12:30:37;;;;;;;7.50;5.43;;;16.10;99.90;;;;;;5015358;28;20276;-91
2021/07/03 12:33:10;;;;;;;12.07;6.30;;;16.00;99.90;;;;;;5016337;28;20215;-92
2021/07/03 12:35:46;;;;;;;10.57;5.93;;;16.00;99.90;;;;;;5009701;28;20206;-92
2021/07/03 12:38:25;;;;;;;11.27;6.07;;;16.00;99.90;;;;;;4996464;28;20256;-92
2021/07/03 12:41:00;;;;;;;8.57;6.67;;;16.00;99.90;;;;;;4995786;28;20557;-92
2021/07/03 12:43:40;;;;;;;8.83;6.50;;;16.00;99.90;;;;;;4996319;28;20202;-93
2021/07/03 12:46:12;;;;;;;9.30;6.20;;;16.00;99.90;;;;;;4996725;28;20218;-92
2021/07/03 12:48:44;;;;;;;9.73;5.77;;;16.10;99.90;;;;;;4996365;28;20582;-92
2021/07/03 12:51:15;;;;;;;8.17;5.63;;;16.10;99.90;;;;;;4996563;28;20691;-92
2021/07/03 12:53:47;;;;;;;7.47;6.13;;;16.10;99.90;;;;;;4996723;28;20217;-92
2021/07/03 12:56:22;;;;;;;8.23;6.13;;;16.00;99.90;;;;;;4999486;28;20962;-92
2021/07/03 12:59:00;;;;;;;9.60;6.00;;;16.10;99.90;;;;;;5011691;28;20217;-92
2021/07/03 13:01:35;;;;;;;8.53;6.27;;;16.20;99.90;;;;;;5012323;28;20209;-92
2021/07/03 13:04:08;;;;;;;8.37;6.10;;;16.10;99.90;;;;;;5008504;28;20286;-93
2021/07/03 13:06:40;;;;;;;8.60;5.93;;;16.10;99.90;;;;;;4996690;28;20203;-93
2021/07/03 13:09:11;;;;;;;7.57;5.77;;;16.10;99.90;;;;;;4977024;28;20663;-92
2021/07/03 13:11:46;;;;;;;9.73;5.93;;;16.20;99.90;;;;;;4975098;28;20297;-92
2021/07/03 13:14:17;;;;;;;8.93;6.13;;;16.20;99.90;;;;;;4977021;28;20314;-91
2021/07/03 13:16:48;;;;;;;10.93;5.83;;;16.20;99.90;;;;;;4976113;28;20211;-91
2021/07/03 13:19:20;;;;;;;9.73;6.27;;;16.20;99.90;;;;;;4991321;28;20255;-91
2021/07/03 13:21:51;;;;;;;9.50;6.03;;;16.20;99.90;;;;;;4994667;28;20206;-91
2021/07/03 13:24:22;;;;;;;10.17;6.20;;;16.20;99.90;;;;;;4992178;28;20226;-92
2021/07/03 13:26:54;;;;;;;11.27;6.50;;;16.20;99.90;;;;;;4977931;28;20234;-92
2021/07/03 13:29:25;;;;;;;8.43;5.70;;;16.20;99.90;;;;;;4976605;28;20207;-92
2021/07/03 13:31:56;;;;;;;10.37;6.33;;;16.30;99.90;;;;;;4975429;28;20799;-92
2021/07/03 13:34:27;;;;;;;9.30;6.00;;;16.30;99.90;;;;;;4976903;28;20202;-92
2021/07/03 13:36:58;;;;;;;7.57;6.20;;;16.30;99.90;;;;;;4992329;28;20209;-92
2021/07/03 13:39:28;;;;;;;9.10;6.10;;;16.40;99.90;;;;;;4996173;28;20667;-92
2021/07/03 13:42:01;;;;;;;7.83;6.07;;;16.40;99.90;;;;;;4995232;28;20242;-92
2021/07/03 13:44:33;;;;;;;7.83;6.57;;;16.40;99.90;;;;;;4996347;28;20714;-93
2021/07/03 13:47:04;;;;;;;9.10;6.67;;;16.40;99.90;;;;;;4995975;28;20270;-93